Time;durP1;ratioP1;P1;durP2;ratioP2;P2;SDS_P1;SDS_P2;PMS_P1;PMS_P2;Temp;Humidity;BMP_temperature;BMP_pressure;BME280_temperature;BME280_humidity;BME280_pressure;Samples;Min_cycle;Max_cycle;Signal;HPM_P1;HPM_P2
2021/12/04 00:00:47;;;;;;;4.00;2.90;;;;;;;2.27;80.09;151948.97;5093974;28;20941;-75
2021/12/04 00:03:22;;;;;;;6.03;3.10;;;;;;;2.29;81.05;151955.41;5077918;28;20436;-74
2021/12/04 00:06:03;;;;;;;3.83;3.27;;;;;;;2.33;81.11;151965.66;5078608;28;20875;-74
2021/12/04 00:08:44;;;;;;;4.73;2.77;;;;;;;2.34;80.94;151968.25;5079294;28;20441;-74
2021/12/04 00:11:19;;;;;;;3.90;3.10;;;;;;;2.26;80.79;151946.41;5084587;28;20824;-74
2021/12/04 00:13:55;;;;;;;3.37;2.47;;;;;;;2.25;82.51;151945.09;5077765;28;20935;-74
2021/12/04 00:16:30;;;;;;;4.03;2.73;;;;;;;2.23;82.73;151939.97;5077596;28;20440;-74
2021/12/04 00:19:06;;;;;;;3.30;3.00;;;;;;;2.22;81.26;151937.44;5097343;28;20448;-74
2021/12/04 00:21:42;;;;;;;4.13;3.03;;;;;;;2.23;82.52;151939.97;5077866;28;20438;-75
2021/12/04 00:24:19;;;;;;;5.67;3.67;;;;;;;2.21;81.58;151933.53;5083530;28;20480;-75
2021/12/04 00:26:57;;;;;;;4.40;3.50;;;;;;;2.25;81.33;151945.09;5090268;28;20525;-75
2021/12/04 00:29:32;;;;;;;4.07;3.70;;;;;;;2.30;80.86;151957.94;5061333;28;20454;-75
2021/12/04 00:32:12;;;;;;;4.80;3.70;;;;;;;2.26;80.46;151947.69;5077260;28;20430;-74
2021/12/04 00:34:54;;;;;;;4.97;3.60;;;;;;;2.26;80.87;151947.69;5079105;28;20434;-75
2021/12/04 00:49:05;;;;;;;5.30;3.20;;;;;;;2.25;81.70;151943.84;5057531;28;20463;-75
2021/12/04 00:49:17;;;;;;;6.93;3.27;;;;;;;2.31;81.49;151960.53;5076129;28;20536;-76
2021/12/04 00:51:54;;;;;;;4.23;3.37;;;;;;;2.30;82.50;151957.94;5076943;28;20436;-75
2021/12/04 00:54:30;;;;;;;6.00;2.93;;;;;;;2.32;82.21;151963.13;5073739;28;20444;-76
2021/12/04 00:57:07;;;;;;;3.50;3.00;;;;;;;2.29;82.06;151955.41;5069444;28;20535;-75
2021/12/04 00:59:43;;;;;;;3.47;3.17;;;;;;;2.28;83.09;151952.81;5076397;28;20951;-75
2021/12/04 01:02:19;;;;;;;4.50;3.30;;;;;;;2.27;83.74;151948.97;5049779;28;20437;-75
2021/12/04 01:04:55;;;;;;;4.70;3.47;;;;;;;2.34;84.75;151966.97;5076409;28;20862;-75
2021/12/04 01:07:31;;;;;;;3.77;2.87;;;;;;;2.32;84.60;151961.84;5076918;28;20800;-75
2021/12/04 01:10:09;;;;;;;3.33;2.97;;;;;;;2.34;86.75;151968.25;5069768;28;20473;-75
2021/12/04 01:12:49;;;;;;;4.60;3.40;;;;;;;2.32;85.22;151963.13;5094820;28;20418;-75
2021/12/04 01:15:25;;;;;;;3.47;3.13;;;;;;;2.36;85.21;151973.41;5077654;28;20442;-75
2021/12/04 01:18:00;;;;;;;4.63;3.13;;;;;;;2.38;86.96;151977.28;5076735;28;20441;-75
2021/12/04 01:20:36;;;;;;;3.27;2.80;;;;;;;2.39;86.14;151979.81;5077331;28;20515;-75
2021/12/04 01:23:11;;;;;;;3.17;2.87;;;;;;;2.36;86.99;151972.09;5061335;28;20959;-75
2021/12/04 01:25:47;;;;;;;4.33;3.27;;;;;;;2.39;87.73;151979.81;5075455;28;20477;-75
2021/12/04 01:28:24;;;;;;;3.60;3.20;;;;;;;2.31;89.49;151959.25;5061719;28;21848;-75
2021/12/04 01:30:59;;;;;;;3.50;3.10;;;;;;;2.28;90.64;151952.81;5056217;28;20437;-74
2021/12/04 01:33:35;;;;;;;4.53;3.20;;;;;;;2.31;91.45;151959.25;5056313;28;20476;-75
2021/12/04 01:36:11;;;;;;;3.93;3.20;;;;;;;2.26;92.18;151947.69;5037571;28;20448;-74
2021/12/04 01:38:46;;;;;;;4.63;3.40;;;;;;;2.25;92.32;151945.09;5086791;28;21172;-75
2021/12/04 01:41:22;;;;;;;4.63;3.47;;;;;;;2.27;92.32;151950.28;5071390;28;20446;-74
2021/12/04 01:44:00;;;;;;;4.17;2.93;;;;;;;2.26;94.36;151947.69;5089630;28;20530;-75
2021/12/04 01:46:35;;;;;;;3.60;3.30;;;;;;;2.23;97.26;151938.66;5083523;28;20462;-75
2021/12/04 01:49:11;;;;;;;3.80;2.70;;;;;;;2.31;99.64;151960.53;5055293;28;20793;-75
2021/12/04 01:51:47;;;;;;;3.10;2.50;;;;;;;2.32;100.00;151963.13;5056147;28;20800;-75
2021/12/04 01:54:22;;;;;;;2.80;2.30;;;;;;;2.37;100.00;151974.69;5052323;28;20480;-75
2021/12/04 01:56:58;;;;;;;3.10;2.43;;;;;;;2.34;100.00;151966.97;5046549;28;20495;-74
2021/12/04 01:59:35;;;;;;;2.60;1.83;;;;;;;2.39;100.00;151979.81;5088548;28;20423;-75
2021/12/04 02:02:11;;;;;;;3.33;2.37;;;;;;;2.35;100.00;151970.84;5055568;28;20491;-76
2021/12/04 02:04:47;;;;;;;3.57;2.43;;;;;;;2.34;100.00;151968.25;5062930;28;20893;-75
2021/12/04 02:07:22;;;;;;;3.00;2.27;;;;;;;2.23;100.00;151938.66;5089126;28;20459;-75
2021/12/04 02:09:58;;;;;;;3.80;2.77;;;;;;;2.22;100.00;151937.44;5048632;28;20457;-75
2021/12/04 02:12:34;;;;;;;3.80;2.63;;;;;;;2.14;100.00;151916.84;5061799;28;20447;-75
2021/12/04 02:15:13;;;;;;;3.83;2.87;;;;;;;2.08;100.00;151901.41;5075298;28;20952;-74
2021/12/04 02:17:49;;;;;;;3.43;2.70;;;;;;;2.04;100.00;151891.09;5077769;28;20443;-75
2021/12/04 02:20:28;;;;;;;5.30;3.50;;;;;;;2.05;100.00;151893.69;5055267;28;20450;-75
2021/12/04 02:23:04;;;;;;;4.80;3.23;;;;;;;1.95;100.00;151868.00;5046003;28;20472;-76
2021/12/04 02:25:41;;;;;;;5.37;3.47;;;;;;;1.94;100.00;151865.41;5075333;28;20563;-74
2021/12/04 02:28:17;;;;;;;4.63;3.43;;;;;;;1.89;100.00;151852.56;5069240;28;20457;-75
2021/12/04 02:30:52;;;;;;;4.57;3.60;;;;;;;1.86;100.00;151844.84;5071656;28;20511;-75
2021/12/04 02:33:28;;;;;;;4.47;3.87;;;;;;;1.81;100.00;151833.28;5050940;28;20484;-75
2021/12/04 02:36:07;;;;;;;5.10;4.27;;;;;;;1.82;100.00;151834.56;5023957;28;20431;-75
2021/12/04 02:38:44;;;;;;;5.30;4.47;;;;;;;1.79;100.00;151828.16;5075466;28;20436;-74
2021/12/04 02:41:20;;;;;;;6.30;4.70;;;;;;;1.76;100.00;151819.13;5027321;28;20533;-75
2021/12/04 02:43:55;;;;;;;4.43;4.00;;;;;;;1.76;100.00;151820.44;5052771;28;20919;-75
2021/12/04 02:46:34;;;;;;;5.80;5.10;;;;;;;1.80;100.00;151829.44;5071002;28;20462;-75
2021/12/04 02:49:12;;;;;;;6.63;5.00;;;;;;;1.77;100.00;151821.72;5049963;28;20545;-75
2021/12/04 02:51:49;;;;;;;8.20;5.50;;;;;;;1.72;100.00;151810.13;5069237;28;20445;-75
2021/12/04 02:54:25;;;;;;;7.37;5.20;;;;;;;1.74;100.00;151815.31;5075544;28;20447;-75
2021/12/04 02:57:01;;;;;;;5.30;4.80;;;;;;;1.75;100.00;151817.84;5068364;28;20473;-75
2021/12/04 02:59:38;;;;;;;6.70;5.00;;;;;;;1.78;100.00;151824.25;5054344;28;20444;-75
2021/12/04 03:02:19;;;;;;;6.07;4.83;;;;;;;1.72;100.00;151808.88;5068427;28;20442;-75
2021/12/04 03:04:56;;;;;;;8.37;5.50;;;;;;;1.81;100.00;151833.28;5075258;28;20470;-75
2021/12/04 03:07:33;;;;;;;7.97;5.20;;;;;;;1.78;100.00;151825.56;5054508;28;20445;-75
2021/12/04 03:10:09;;;;;;;10.97;5.80;;;;;;;1.80;100.00;151829.44;5046687;28;20471;-74
2021/12/04 03:12:45;;;;;;;9.07;5.47;;;;;;;1.79;100.00;151826.84;5034404;28;20825;-75
2021/12/04 03:15:21;;;;;;;6.50;5.43;;;;;;;1.79;100.00;151828.16;5072422;28;20975;-75
2021/12/04 03:17:56;;;;;;;6.60;5.53;;;;;;;1.78;100.00;151825.56;5052866;28;20479;-74
2021/12/04 03:20:32;;;;;;;6.73;5.57;;;;;;;1.79;100.00;151826.84;5047064;28;20453;-75
2021/12/04 03:23:15;;;;;;;7.53;5.63;;;;;;;1.79;100.00;151828.16;5058988;28;20441;-75
2021/12/04 03:25:53;;;;;;;6.70;5.70;;;;;;;1.80;100.00;151830.69;5039712;28;20489;-75
2021/12/04 03:28:28;;;;;;;8.67;6.43;;;;;;;1.81;100.00;151833.28;5054176;28;20940;-75
2021/12/04 03:31:09;;;;;;;8.77;5.97;;;;;;;1.81;100.00;151833.28;5074668;28;20815;-75
2021/12/04 03:42:25;;;;;;;7.87;5.33;;;;;;;1.96;100.00;151870.53;5057344;28;20532;-74
2021/12/04 03:45:00;;;;;;;7.13;5.03;;;;;;;1.97;100.00;151873.13;5088068;28;20473;-74
2021/12/04 03:47:39;;;;;;;6.13;5.03;;;;;;;1.96;100.00;151870.53;5072830;28;20556;-75
2021/12/04 03:50:15;;;;;;;7.77;5.43;;;;;;;2.00;100.00;151880.84;5019303;28;20442;-75
2021/12/04 03:52:51;;;;;;;6.80;4.77;;;;;;;2.03;100.00;151887.25;5052545;28;20446;-75
2021/12/04 03:55:28;;;;;;;7.60;5.10;;;;;;;2.05;100.00;151892.41;5070550;28;20452;-75
2021/12/04 03:58:03;;;;;;;7.03;4.90;;;;;;;2.06;100.00;151896.28;5049770;28;20451;-75
2021/12/04 04:00:39;;;;;;;9.47;6.00;;;;;;;2.05;100.00;151893.69;5070558;28;20491;-75
2021/12/04 04:03:15;;;;;;;6.43;4.97;;;;;;;2.05;100.00;151893.69;5054217;28;20924;-75
2021/12/04 04:05:50;;;;;;;6.83;4.73;;;;;;;2.05;100.00;151892.41;5054461;28;20497;-74
2021/12/04 04:08:26;;;;;;;6.97;5.40;;;;;;;2.10;100.00;151906.53;5037149;28;20438;-75
2021/12/04 04:11:03;;;;;;;8.53;5.87;;;;;;;2.07;100.00;151898.81;5052531;28;20439;-74
2021/12/04 04:13:42;;;;;;;7.37;5.07;;;;;;;2.05;100.00;151893.69;5052115;28;20507;-74
2021/12/04 04:16:18;;;;;;;9.40;5.20;;;;;;;2.06;100.00;151896.28;5049624;28;20451;-75
2021/12/04 04:18:53;;;;;;;7.20;5.30;;;;;;;2.10;100.00;151905.25;5069310;28;20803;-75
2021/12/04 04:21:29;;;;;;;5.80;5.10;;;;;;;2.08;100.00;151901.41;5056239;28;20958;-75
2021/12/04 04:24:05;;;;;;;7.20;5.17;;;;;;;2.09;100.00;151903.94;5073312;28;20577;-75
2021/12/04 04:26:44;;;;;;;5.97;4.77;;;;;;;2.09;100.00;151903.94;5056493;28;20464;-75
2021/12/04 04:29:19;;;;;;;5.70;4.57;;;;;;;2.13;100.00;151914.25;5090615;28;20920;-75
2021/12/04 04:31:55;;;;;;;5.50;4.33;;;;;;;2.14;100.00;151916.84;5094174;28;20453;-75
2021/12/04 04:34:33;;;;;;;5.53;4.20;;;;;;;2.22;100.00;151937.44;5073726;28;20808;-74
2021/12/04 04:37:18;;;;;;;5.60;4.53;;;;;;;2.21;100.00;151934.84;5072835;28;20437;-75
2021/12/04 05:00:31;;;;;;;6.03;4.90;;;;;;;2.37;100.00;151974.69;5053866;28;20437;-74
2021/12/04 05:12:01;;;;;;;5.50;4.63;;;;;;;2.38;100.00;151978.53;5076942;28;20441;-75
2021/12/04 05:14:40;;;;;;;7.80;5.43;;;;;;;2.43;100.00;151990.13;5076397;28;20446;-75
2021/12/04 05:17:28;;;;;;;6.47;4.97;;;;;;;2.41;100.00;151984.97;5110223;28;20438;-74
2021/12/04 05:20:04;;;;;;;8.77;5.10;;;;;;;2.42;100.00;151988.84;5076818;28;20478;-75
2021/12/04 05:22:40;;;;;;;5.80;4.27;;;;;;;2.46;100.00;151997.84;5076158;28;20454;-75
2021/12/04 05:25:16;;;;;;;5.43;4.40;;;;;;;2.47;100.00;152001.69;5061883;28;20472;-75
2021/12/04 05:27:51;;;;;;;3.87;3.37;;;;;;;2.50;100.00;152006.84;5045177;28;20470;-74
2021/12/04 05:30:27;;;;;;;5.27;3.83;;;;;;;2.54;100.00;152017.16;5031964;28;20552;-75
2021/12/04 05:33:05;;;;;;;4.43;3.40;;;;;;;2.63;100.00;152040.25;5055623;28;20493;-75
2021/12/04 05:35:40;;;;;;;4.50;2.90;;;;;;;2.67;100.00;152050.56;5057182;28;20946;-75
2021/12/04 05:38:16;;;;;;;2.50;2.27;;;;;;;2.76;100.00;152073.72;5062759;28;20805;-74
2021/12/04 05:40:52;;;;;;;2.47;1.90;;;;;;;2.75;100.00;152071.16;5040379;28;20876;-75
2021/12/04 05:43:28;;;;;;;5.60;2.60;;;;;;;2.74;100.00;152068.56;5055742;28;20445;-74
2021/12/04 05:46:11;;;;;;;4.10;2.70;;;;;;;2.80;100.00;152084.03;5089885;28;21157;-75
2021/12/04 05:48:51;;;;;;;3.57;2.40;;;;;;;2.82;100.00;152089.16;5090105;28;20772;-75
2021/12/04 05:51:37;;;;;;;4.20;2.37;;;;;;;2.87;100.00;152102.00;5039293;28;20444;-75
2021/12/04 05:54:31;;;;;;;3.17;2.77;;;;;;;2.87;100.00;152103.31;5042711;28;20444;-75
2021/12/04 05:57:07;;;;;;;3.60;2.90;;;;;;;2.90;100.00;152109.75;5039274;28;20444;-75
2021/12/04 05:59:43;;;;;;;3.67;2.70;;;;;;;2.89;100.00;152108.44;5055887;28;20445;-75
2021/12/04 06:02:19;;;;;;;2.70;2.20;;;;;;;2.96;100.00;152125.19;5039631;28;20455;-75
2021/12/04 06:04:56;;;;;;;2.43;2.00;;;;;;;3.00;100.00;152135.47;5067360;28;20447;-75
2021/12/04 06:07:32;;;;;;;3.50;2.67;;;;;;;2.97;100.00;152129.03;5059869;28;20814;-74
2021/12/04 06:10:08;;;;;;;3.20;2.57;;;;;;;3.01;100.00;152138.06;5040028;28;20529;-75
2021/12/04 06:12:43;;;;;;;4.40;2.80;;;;;;;3.01;100.00;152139.34;5056446;28;20442;-74
2021/12/04 06:15:19;;;;;;;2.17;1.90;;;;;;;2.99;100.00;152132.91;5055315;28;20547;-76
2021/12/04 06:17:55;;;;;;;3.20;2.50;;;;;;;3.02;100.00;152140.59;5055053;28;20446;-76
2021/12/04 06:23:26;;;;;;;3.90;2.87;;;;;;;3.09;100.00;152158.66;5051000;28;20461;-76
2021/12/04 06:26:02;;;;;;;2.73;2.30;;;;;;;3.08;100.00;152156.06;5071125;28;20433;-76
2021/12/04 06:28:38;;;;;;;3.20;2.40;;;;;;;3.11;100.00;152163.78;5064627;28;20836;-76
2021/12/04 06:31:14;;;;;;;2.97;2.20;;;;;;;3.11;100.00;152163.78;5064909;28;20429;-76
2021/12/04 06:33:50;;;;;;;2.10;1.60;;;;;;;3.16;100.00;152176.66;5065199;28;20776;-76
2021/12/04 06:36:27;;;;;;;2.30;1.90;;;;;;;3.18;100.00;152181.78;5053228;28;20438;-76
2021/12/04 06:39:03;;;;;;;1.70;1.50;;;;;;;3.23;100.00;152193.41;5051935;28;20440;-76
2021/12/04 06:41:38;;;;;;;1.57;1.23;;;;;;;3.24;100.00;152195.94;5061760;28;20439;-76
2021/12/04 06:44:14;;;;;;;2.40;1.53;;;;;;;3.28;100.00;152206.25;5073929;28;20803;-76
2021/12/04 06:46:50;;;;;;;1.93;1.73;;;;;;;3.32;100.00;152217.81;5035427;28;20541;-75
2021/12/04 06:49:29;;;;;;;1.80;1.10;;;;;;;3.37;100.00;152230.69;5019951;28;20445;-75
2021/12/04 06:52:11;;;;;;;2.23;1.43;;;;;;;3.48;100.00;152257.72;5042480;28;20447;-76
2021/12/04 06:54:54;;;;;;;1.10;0.80;;;;;;;3.52;100.00;152269.28;5054692;28;20486;-76
2021/12/04 06:57:32;;;;;;;1.80;0.90;;;;;;;3.55;100.00;152277.03;5054959;28;20782;-75
2021/12/04 07:00:10;;;;;;;1.00;0.73;;;;;;;3.61;100.00;152292.47;5059910;28;20449;-76
2021/12/04 07:02:45;;;;;;;1.50;0.90;;;;;;;3.60;100.00;152289.88;5054001;28;20530;-76
2021/12/04 07:05:21;;;;;;;0.97;0.73;;;;;;;3.69;100.00;152313.09;5084949;28;20468;-76
2021/12/04 07:07:58;;;;;;;0.97;0.80;;;;;;;3.66;100.00;152305.34;5055706;28;20839;-76
2021/12/04 07:10:34;;;;;;;2.20;1.20;;;;;;;3.64;100.00;152300.22;5080311;28;20483;-76
2021/12/04 07:13:12;;;;;;;2.37;1.00;;;;;;;3.69;100.00;152313.09;5088181;28;20461;-76
2021/12/04 07:15:48;;;;;;;1.17;0.70;;;;;;;3.65;100.00;152302.75;5047753;28;20485;-76
2021/12/04 07:18:23;;;;;;;1.10;0.70;;;;;;;3.64;100.00;152300.22;5055283;28;21005;-76
2021/12/04 07:20:59;;;;;;;2.70;1.10;;;;;;;3.57;100.00;152282.16;5038154;28;20446;-76
2021/12/04 07:23:37;;;;;;;1.30;0.93;;;;;;;3.67;100.00;152307.94;5035142;28;20990;-76
2021/12/04 07:26:15;;;;;;;1.50;1.10;;;;;;;3.75;100.00;152327.25;5070707;28;20437;-76
2021/12/04 07:28:50;;;;;;;1.33;1.13;;;;;;;3.77;100.00;152331.09;5102055;28;20783;-76
2021/12/04 07:31:26;;;;;;;2.17;1.10;;;;;;;3.74;100.00;152323.34;5075968;28;20450;-76
2021/12/04 07:34:02;;;;;;;1.80;1.30;;;;;;;3.71;100.00;152315.69;5087489;28;20444;-76
2021/12/04 07:36:37;;;;;;;1.47;1.00;;;;;;;3.76;100.00;152328.53;5038765;28;20428;-76
2021/12/04 07:39:14;;;;;;;1.67;0.80;;;;;;;3.87;100.00;152358.13;5053801;28;20914;-76
2021/12/04 07:41:50;;;;;;;4.00;0.90;;;;;;;3.99;100.00;152387.75;5058118;28;20545;-76
2021/12/04 07:44:25;;;;;;;1.13;0.60;;;;;;;4.02;100.00;152395.50;5072980;28;20447;-76
2021/12/04 07:47:01;;;;;;;1.10;0.70;;;;;;;4.01;100.00;152394.19;5093898;28;20450;-75
2021/12/04 07:49:38;;;;;;;1.90;1.00;;;;;;;4.08;100.00;152412.22;5074268;28;20440;-76
2021/12/04 07:52:13;;;;;;;1.30;0.90;;;;;;;4.00;100.00;152390.31;5065752;28;20488;-76
2021/12/04 07:54:50;;;;;;;2.00;1.00;;;;;;;4.12;100.00;152422.53;5057396;28;20467;-76
2021/12/04 07:57:26;;;;;;;1.10;0.73;;;;;;;4.16;100.00;152431.53;5042594;28;20470;-76
2021/12/04 08:00:02;;;;;;;1.20;0.97;;;;;;;4.15;100.00;152428.97;5070607;28;20451;-76
2021/12/04 08:02:41;;;;;;;1.03;0.90;;;;;;;4.09;100.00;152414.81;5050675;28;21014;-76
2021/12/04 08:05:17;;;;;;;1.30;0.80;;;;;;;4.13;100.00;152425.09;5090832;28;20449;-76
2021/12/04 08:07:52;;;;;;;0.97;0.70;;;;;;;4.27;100.00;152461.16;5063848;28;20475;-76
2021/12/04 08:10:30;;;;;;;0.90;0.50;;;;;;;4.23;100.00;152449.59;5068244;28;20447;-76
2021/12/04 08:13:05;;;;;;;0.87;0.67;;;;;;;4.31;100.00;152470.19;5076656;28;20803;-76
2021/12/04 08:15:41;;;;;;;1.10;0.60;;;;;;;4.36;100.00;152483.06;5059514;28;20887;-76
2021/12/04 08:18:16;;;;;;;2.40;0.83;;;;;;;4.41;100.00;152495.94;5060095;28;20525;-76
2021/12/04 08:20:52;;;;;;;0.70;0.40;;;;;;;4.43;100.00;152499.78;5057075;28;20451;-76
2021/12/04 08:23:28;;;;;;;1.00;0.70;;;;;;;4.44;100.00;152503.69;5076618;28;20440;-76
2021/12/04 08:26:05;;;;;;;1.03;0.70;;;;;;;4.53;100.00;152526.84;5057218;28;20428;-76
2021/12/04 08:28:41;;;;;;;1.17;0.70;;;;;;;4.58;100.00;152539.72;5055934;28;20547;-76
2021/12/04 08:31:16;;;;;;;1.00;0.63;;;;;;;4.62;100.00;152550.06;5049697;28;20431;-76
2021/12/04 08:33:52;;;;;;;1.27;0.83;;;;;;;4.63;100.00;152552.59;5057602;28;20849;-76
2021/12/04 08:36:28;;;;;;;1.73;0.80;;;;;;;4.65;100.00;152557.78;5050744;28;20478;-76
2021/12/04 08:39:05;;;;;;;0.80;0.70;;;;;;;4.67;100.00;152562.94;5057208;28;20477;-76
2021/12/04 08:41:42;;;;;;;1.00;0.73;;;;;;;4.74;100.00;152579.66;5057025;28;20436;-76
2021/12/04 08:44:19;;;;;;;0.80;0.70;;;;;;;4.73;100.00;152578.41;5058700;28;20930;-76
2021/12/04 08:46:54;;;;;;;0.87;0.70;;;;;;;4.73;100.00;152577.13;5057405;28;20441;-76
2021/12/04 08:49:31;;;;;;;1.00;0.70;;;;;;;4.77;100.00;152588.69;5055702;28;20445;-76
2021/12/04 08:52:08;;;;;;;0.80;0.50;;;;;;;4.79;100.00;152592.59;5063390;28;20450;-76
2021/12/04 08:54:44;;;;;;;0.90;0.70;;;;;;;4.86;100.00;152611.91;5056543;28;20524;-76
2021/12/04 08:57:21;;;;;;;0.80;0.60;;;;;;;4.89;100.00;152618.34;5056554;28;20453;-76
2021/12/04 08:59:57;;;;;;;2.73;0.67;;;;;;;5.00;100.00;152645.41;5074149;28;20456;-76
2021/12/04 09:02:32;;;;;;;0.90;0.70;;;;;;;4.96;100.00;152635.06;5050490;28;20461;-76
2021/12/04 09:05:10;;;;;;;0.90;0.50;;;;;;;4.98;100.00;152640.28;5073035;28;20481;-76
2021/12/04 09:07:45;;;;;;;0.97;0.60;;;;;;;4.96;100.00;152636.38;5057235;28;20476;-76
2021/12/04 09:10:22;;;;;;;0.93;0.50;;;;;;;5.11;100.00;152673.78;5056861;28;20527;-76
2021/12/04 09:12:59;;;;;;;1.00;0.60;;;;;;;5.07;100.00;152663.44;5074853;28;20437;-76
2021/12/04 09:15:36;;;;;;;1.00;0.70;;;;;;;5.07;100.00;152663.44;5075012;28;20452;-76
2021/12/04 09:18:12;;;;;;;0.90;0.57;;;;;;;5.14;100.00;152682.78;5040635;28;20445;-76
2021/12/04 09:20:49;;;;;;;1.10;0.67;;;;;;;5.23;100.00;152704.69;5056020;28;20528;-76
2021/12/04 09:23:30;;;;;;;1.00;0.70;;;;;;;5.21;100.00;152699.56;5041501;28;20421;-76
2021/12/04 09:26:10;;;;;;;1.30;0.70;;;;;;;5.17;100.00;152689.22;5052989;28;21166;-76
2021/12/04 09:28:52;;;;;;;0.80;0.60;;;;;;;5.27;100.00;152715.03;5053429;28;20470;-76
2021/12/04 09:31:40;;;;;;;1.30;0.70;;;;;;;5.36;100.00;152738.22;5040220;28;20936;-77
2021/12/04 10:01:00;;;;;;;0.77;0.50;;;;;;;5.75;100.00;152837.47;4994146;28;20445;-77
2021/12/04 10:03:49;;;;;;;1.10;0.80;;;;;;;5.87;100.00;152869.81;5052740;28;20457;-76
2021/12/04 10:18:19;;;;;;;1.10;0.80;;;;;;;6.15;100.00;152940.72;5049969;28;20435;-76
2021/12/04 10:32:39;;;;;;;1.67;0.57;;;;;;;6.72;100.00;153086.56;5075185;28;20425;-76
2021/12/04 10:35:17;;;;;;;1.00;0.60;;;;;;;6.66;100.00;153072.38;5074455;28;20441;-76
2021/12/04 10:37:58;;;;;;;1.50;0.83;;;;;;;6.67;100.00;153074.91;5073089;28;20445;-76
2021/12/04 10:40:37;;;;;;;2.50;1.00;;;;;;;6.68;100.00;153076.22;5066349;28;20860;-77
2021/12/04 10:43:18;;;;;;;1.13;0.70;;;;;;;6.66;100.00;153072.38;5072833;28;20445;-76
2021/12/04 10:46:00;;;;;;;1.37;0.70;;;;;;;6.81;100.00;153108.47;5073236;28;20437;-77
2021/12/04 10:48:46;;;;;;;1.23;0.60;;;;;;;6.86;100.00;153121.44;5073706;28;20500;-77
2021/12/04 10:51:27;;;;;;;1.37;0.73;;;;;;;6.91;100.00;153135.59;5069645;28;20777;-76
2021/12/04 10:54:19;;;;;;;1.23;0.60;;;;;;;6.91;100.00;153135.59;5073341;28;20444;-76
2021/12/04 10:57:14;;;;;;;2.00;0.70;;;;;;;6.89;100.00;153129.13;5056618;28;20483;-77
2021/12/04 10:59:54;;;;;;;2.03;0.70;;;;;;;6.98;100.00;153153.69;5065783;28;20461;-76
2021/12/04 11:02:37;;;;;;;1.57;0.70;;;;;;;7.08;100.00;153179.50;5072047;28;20433;-76
2021/12/04 11:05:41;;;;;;;1.00;0.67;;;;;;;7.14;100.00;153193.72;5073092;28;20437;-76
2021/12/04 11:20:29;;;;;;;1.10;0.80;;;;;;;7.41;100.00;153263.44;5068824;28;20496;-76
2021/12/04 11:34:54;;;;;;;1.10;0.50;;;;;;;7.54;100.00;153295.72;5036146;28;20472;-76
2021/12/04 11:40:53;;;;;;;0.90;0.50;;;;;;;7.70;100.00;153337.06;5087067;28;20475;-77
2021/12/04 11:43:34;;;;;;;1.10;0.50;;;;;;;7.76;100.00;153352.53;5052756;28;20437;-76
2021/12/04 11:46:19;;;;;;;0.83;0.50;;;;;;;7.75;100.00;153349.97;5072771;28;20440;-76
2021/12/04 11:48:59;;;;;;;1.00;0.43;;;;;;;7.75;100.00;153349.97;5072573;28;20484;-76
2021/12/04 11:51:35;;;;;;;2.57;0.60;;;;;;;7.83;100.00;153371.94;5057812;28;20845;-78
2021/12/04 11:54:12;;;;;;;0.80;0.43;;;;;;;7.71;100.00;153340.91;5090137;28;20455;-77
2021/12/04 11:56:58;;;;;;;0.90;0.50;;;;;;;7.85;100.00;153375.81;5068518;28;20450;-76
2021/12/04 11:59:35;;;;;;;1.10;0.60;;;;;;;7.91;100.00;153391.31;5058149;28;20445;-76
2021/12/04 12:02:21;;;;;;;1.00;0.73;;;;;;;7.85;100.00;153377.09;5058278;28;20449;-76
2021/12/04 12:04:57;;;;;;;1.73;0.53;;;;;;;7.85;100.00;153377.09;5060084;28;20445;-76
2021/12/04 12:07:33;;;;;;;0.80;0.47;;;;;;;7.97;100.00;153408.09;5069963;28;20441;-77
2021/12/04 12:10:13;;;;;;;1.10;0.53;;;;;;;7.91;100.00;153391.31;5058832;28;20868;-76
2021/12/04 12:12:51;;;;;;;1.87;0.80;;;;;;;8.02;100.00;153418.44;5072780;28;20553;-76
2021/12/04 12:15:31;;;;;;;0.90;0.50;;;;;;;8.04;100.00;153424.91;5068740;28;20449;-76
2021/12/04 12:18:13;;;;;;;0.90;0.53;;;;;;;8.00;100.00;153414.53;5076301;28;20459;-77
2021/12/04 12:20:51;;;;;;;1.10;0.83;;;;;;;8.01;100.00;153415.84;5058031;28;20911;-76
2021/12/04 12:23:30;;;;;;;1.20;0.80;;;;;;;8.07;100.00;153432.66;5072766;28;20433;-76
2021/12/04 12:26:17;;;;;;;1.97;0.70;;;;;;;8.14;100.00;153450.75;5050706;28;20469;-76
2021/12/04 12:32:04;;;;;;;1.80;0.63;;;;;;;8.11;100.00;153443.00;5044342;28;20608;-76
2021/12/04 12:37:53;;;;;;;1.47;0.77;;;;;;;8.16;100.00;153455.91;4993344;28;20960;-76
2021/12/04 12:40:29;;;;;;;1.13;0.50;;;;;;;8.09;100.00;153437.81;5033832;28;20443;-76
2021/12/04 12:43:14;;;;;;;0.93;0.60;;;;;;;8.17;100.00;153458.50;5037461;28;20461;-76
2021/12/04 12:45:55;;;;;;;0.83;0.60;;;;;;;8.14;100.00;153450.75;5033980;28;20457;-76
2021/12/04 12:48:42;;;;;;;2.83;0.60;;;;;;;8.12;100.00;153445.59;5032752;28;20473;-76
2021/12/04 12:51:26;;;;;;;0.70;0.30;;;;;;;8.19;100.00;153463.66;5040613;28;20466;-76
2021/12/04 12:54:05;;;;;;;0.83;0.40;;;;;;;8.09;100.00;153436.53;5035392;28;20805;-76
2021/12/04 12:56:46;;;;;;;1.07;0.53;;;;;;;8.10;100.00;153439.13;5039802;28;20439;-76
2021/12/04 12:59:33;;;;;;;0.90;0.60;;;;;;;8.16;100.00;153455.91;5022197;28;20537;-76
2021/12/04 13:14:10;;;;;;;1.60;1.00;;;;;;;8.12;100.00;153444.28;5068064;28;20499;-75
2021/12/04 13:16:48;;;;;;;1.77;0.87;;;;;;;8.14;100.00;153449.44;5054156;28;20449;-75
2021/12/04 13:19:25;;;;;;;1.30;0.70;;;;;;;8.09;100.00;153436.53;5039505;28;20832;-75
2021/12/04 13:22:04;;;;;;;1.20;1.00;;;;;;;8.06;100.00;153428.75;5056384;28;20876;-75
2021/12/04 13:24:43;;;;;;;1.90;1.37;;;;;;;8.04;100.00;153423.63;5054821;28;20482;-75
2021/12/04 13:29:57;;;;;;;1.10;1.00;;;;;;;8.05;100.00;153427.47;5039620;28;20791;-75
2021/12/04 13:32:34;;;;;;;1.17;0.60;;;;;;;8.00;100.00;153414.53;5062063;28;20433;-75
2021/12/04 13:35:12;;;;;;;2.07;0.87;;;;;;;8.14;100.00;153449.44;5055841;28;20809;-75
2021/12/04 13:37:48;;;;;;;1.53;0.80;;;;;;;8.08;100.00;153435.22;5054979;28;20851;-75
2021/12/04 13:40:27;;;;;;;1.30;0.80;;;;;;;8.07;100.00;153432.66;5058572;28;20453;-75
2021/12/04 13:43:03;;;;;;;0.90;0.70;;;;;;;8.07;100.00;153432.66;5073463;28;20430;-75
2021/12/04 13:45:38;;;;;;;1.40;1.00;;;;;;;8.06;100.00;153430.06;5040656;28;20454;-75
2021/12/04 13:48:14;;;;;;;1.20;0.80;;;;;;;8.04;100.00;153424.91;5051881;28;20871;-75
2021/12/04 13:50:50;;;;;;;1.40;0.90;;;;;;;8.02;100.00;153419.75;5049340;28;20959;-75
2021/12/04 13:53:29;;;;;;;1.47;1.07;;;;;;;8.06;100.00;153430.06;5065396;28;20434;-75
2021/12/04 13:56:07;;;;;;;1.00;0.73;;;;;;;8.03;100.00;153422.31;5024649;28;20988;-75
2021/12/04 13:58:46;;;;;;;1.30;0.80;;;;;;;8.05;100.00;153427.47;5055697;28;20985;-75
2021/12/04 14:01:24;;;;;;;1.00;0.80;;;;;;;7.95;100.00;153401.63;5055108;28;20430;-75
2021/12/04 14:04:03;;;;;;;1.47;0.67;;;;;;;7.98;100.00;153409.41;5072603;28;20457;-75
2021/12/04 14:06:38;;;;;;;1.20;0.83;;;;;;;7.96;100.00;153405.53;5030613;28;20485;-75
2021/12/04 14:09:14;;;;;;;1.43;1.00;;;;;;;7.95;100.00;153401.63;5053290;28;20465;-75
2021/12/04 14:11:53;;;;;;;0.90;0.50;;;;;;;7.92;100.00;153393.88;5024857;28;20843;-76
2021/12/04 14:14:30;;;;;;;1.10;0.77;;;;;;;7.93;100.00;153397.78;5042808;28;20450;-76
2021/12/04 14:17:08;;;;;;;2.10;1.27;;;;;;;7.84;100.00;153373.19;5053057;28;20442;-76
2021/12/04 14:19:44;;;;;;;1.30;0.80;;;;;;;7.89;100.00;153387.41;5063742;28;20553;-77
2021/12/04 14:22:21;;;;;;;1.30;1.00;;;;;;;7.90;100.00;153388.72;5072388;28;20445;-78
2021/12/04 14:24:59;;;;;;;1.10;0.80;;;;;;;7.90;100.00;153390.03;5064597;28;20474;-76
2021/12/04 14:27:37;;;;;;;1.30;0.87;;;;;;;7.88;100.00;153383.56;5073933;28;20535;-76
2021/12/04 14:30:16;;;;;;;1.40;0.83;;;;;;;7.84;100.00;153373.19;5066561;28;20502;-76
2021/12/04 14:32:54;;;;;;;1.37;0.90;;;;;;;7.86;100.00;153379.66;5067073;28;20445;-76
2021/12/04 14:35:34;;;;;;;1.57;0.90;;;;;;;7.87;100.00;153382.25;5071759;28;20847;-76
2021/12/04 14:38:12;;;;;;;1.50;1.27;;;;;;;7.85;100.00;153375.81;5036243;28;20453;-76
2021/12/04 14:40:51;;;;;;;1.27;1.10;;;;;;;7.86;100.00;153378.41;5067458;28;20536;-76
2021/12/04 14:43:32;;;;;;;2.30;1.60;;;;;;;7.80;100.00;153364.19;5061573;28;20442;-76